createdAt,value
2018-06-17T00:00:24.062Z,101219.72
2018-06-17T00:02:52.461Z,101215.36
2018-06-17T00:05:20.835Z,101212.28
2018-06-17T00:07:49.241Z,101214.05
2018-06-17T00:10:17.621Z,101208.84
2018-06-17T00:12:46.027Z,101217.66
2018-06-17T00:15:14.433Z,101214.21
2018-06-17T00:17:42.834Z,101214.67
2018-06-17T00:20:11.207Z,101214.72
2018-06-17T00:22:39.595Z,101215.19
2018-06-17T00:25:08.007Z,101210.84
2018-06-17T00:27:36.391Z,101211.75
2018-06-17T00:30:04.938Z,101208.31
2018-06-17T00:32:33.451Z,101211.01
2018-06-17T00:35:01.857Z,101202.27
2018-06-17T00:37:30.232Z,101207.17
2018-06-17T00:39:58.658Z,101204.66
2018-06-17T00:42:27.040Z,101205.20
2018-06-17T00:44:55.486Z,101209.25
2018-06-17T00:47:23.858Z,101206.64
2018-06-17T00:49:52.269Z,101198.34
2018-06-17T00:52:20.650Z,101198.80
2018-06-17T00:54:49.097Z,101201.01
2018-06-17T00:57:28.911Z,101197.53
2018-06-17T00:59:57.310Z,101195.80
2018-06-17T01:02:25.688Z,101204.59
2018-06-17T01:04:54.087Z,101196.77
2018-06-17T01:07:22.467Z,101198.12
2018-06-17T01:09:50.903Z,101200.77
2018-06-17T01:12:19.282Z,101192.97
2018-06-17T01:14:47.715Z,101195.19
2018-06-17T01:17:16.099Z,101195.68
2018-06-17T01:19:44.509Z,101185.22
2018-06-17T01:22:12.890Z,101185.67
2018-06-17T01:24:41.311Z,101183.54
2018-06-17T01:27:09.706Z,101182.76
2018-06-17T01:29:38.114Z,101188.50
2018-06-17T01:32:06.327Z,101190.72
2018-06-17T01:34:34.830Z,101185.09
2018-06-17T01:37:03.238Z,101186.00
2018-06-17T01:39:32.302Z,101184.72
2018-06-17T01:42:00.669Z,101183.41
2018-06-17T01:44:29.075Z,101186.48
2018-06-17T01:46:57.630Z,101183.86
2018-06-17T01:49:26.252Z,101181.23
2018-06-17T01:51:54.640Z,101174.25
2018-06-17T01:54:23.019Z,101175.53
2018-06-17T01:56:51.430Z,101176.84
2018-06-17T01:59:19.815Z,101174.62
2018-06-17T02:01:48.220Z,101170.24
2018-06-17T02:04:21.947Z,101168.06
2018-06-17T02:06:55.687Z,101168.93
2018-06-17T02:09:29.480Z,101171.59
2018-06-17T02:12:08.158Z,101170.31
2018-06-17T02:14:41.982Z,101167.73
2018-06-17T02:17:10.382Z,101169.08
2018-06-17T02:19:38.759Z,101159.92
2018-06-17T02:22:07.264Z,101163.45
2018-06-17T02:24:35.882Z,101156.06
2018-06-17T02:27:04.291Z,101158.69
2018-06-17T02:29:32.838Z,101150.40
2018-06-17T02:32:01.247Z,101149.08
2018-06-17T02:34:29.630Z,101150.39
2018-06-17T02:36:58.038Z,101148.59
2018-06-17T02:39:26.443Z,101147.21
2018-06-17T02:41:54.864Z,101148.45
2018-06-17T02:44:23.243Z,101152.76
2018-06-17T02:46:57.107Z,101146.98
2018-06-17T02:49:30.795Z,101144.67
2018-06-17T02:52:04.516Z,101159.03
2018-06-17T02:54:38.179Z,101149.70
2018-06-17T02:57:06.619Z,101148.70
2018-06-17T02:59:35.008Z,101128.19
2018-06-17T03:02:03.419Z,101153.79
2018-06-17T03:04:31.809Z,101153.23
2018-06-17T03:07:00.212Z,101151.41
2018-06-17T03:09:28.612Z,101151.77
2018-06-17T03:11:57.232Z,101160.45
2018-06-17T03:14:25.782Z,101151.64
2018-06-17T03:16:54.291Z,101155.94
2018-06-17T03:19:23.052Z,101152.84
2018-06-17T03:21:51.495Z,101157.15
2018-06-17T03:24:25.192Z,101155.84
2018-06-17T03:26:58.924Z,101163.27
2018-06-17T03:29:32.725Z,101156.23
2018-06-17T03:32:06.444Z,101162.34
2018-06-17T03:34:34.831Z,101156.16
2018-06-17T03:37:03.219Z,101160.92
2018-06-17T03:39:31.614Z,101160.86
2018-06-17T03:42:00.004Z,101155.53
2018-06-17T03:44:28.427Z,101151.97
2018-06-17T03:46:56.802Z,101158.42
2018-06-17T03:49:25.209Z,101152.14
2018-06-17T03:51:53.595Z,101153.27
2018-06-17T03:54:22.004Z,101151.55
2018-06-17T03:56:50.398Z,101147.03
2018-06-17T03:59:18.801Z,101146.87
2018-06-17T04:01:47.181Z,101147.38
2018-06-17T04:04:15.582Z,101147.50
2018-06-17T04:06:43.975Z,101144.83
2018-06-17T04:09:12.374Z,101140.80
2018-06-17T04:11:40.760Z,101139.49
2018-06-17T04:14:09.200Z,101137.73
2018-06-17T04:16:37.577Z,101136.91
2018-06-17T04:19:06.050Z,101134.78
2018-06-17T04:21:34.424Z,101134.46
2018-06-17T04:24:02.835Z,101137.30
2018-06-17T04:26:31.227Z,101132.69
2018-06-17T04:28:59.631Z,101131.98
2018-06-17T04:31:28.078Z,101135.22
2018-06-17T04:33:56.492Z,101135.60
2018-06-17T04:36:24.880Z,101139.86
2018-06-17T04:38:53.295Z,101141.94
2018-06-17T04:41:21.678Z,101144.08
2018-06-17T04:43:50.092Z,101170.55
2018-06-17T04:46:18.481Z,101190.16
2018-06-17T04:48:46.882Z,101187.80
2018-06-17T04:51:15.268Z,101193.28
2018-06-17T04:53:43.695Z,101194.95
2018-06-17T04:56:12.087Z,101208.55
2018-06-17T04:58:40.486Z,101206.90
2018-06-17T05:01:08.895Z,101195.95
2018-06-17T05:03:37.280Z,101216.87
2018-06-17T05:06:05.918Z,101197.25
2018-06-17T05:08:34.294Z,101206.80
2018-06-17T05:11:02.703Z,101215.50
2018-06-17T05:13:31.109Z,101221.04
2018-06-17T05:15:59.515Z,101208.29
2018-06-17T05:18:27.881Z,101206.41
2018-06-17T05:20:56.399Z,101208.31
2018-06-17T05:23:24.832Z,101211.20
2018-06-17T05:25:53.230Z,101212.76
2018-06-17T05:28:21.602Z,101208.62
2018-06-17T05:30:50.017Z,101207.59
2018-06-17T05:33:18.403Z,101218.33
2018-06-17T05:35:46.824Z,101218.88
2018-06-17T05:38:15.246Z,101214.25
2018-06-17T05:40:43.654Z,101217.38
2018-06-17T05:43:12.036Z,101206.89
2018-06-17T05:45:40.438Z,101211.02
2018-06-17T05:48:08.823Z,101230.48
2018-06-17T05:50:37.224Z,101222.58
2018-06-17T05:53:05.895Z,101222.94
2018-06-17T05:55:34.374Z,101231.25
2018-06-17T05:58:02.737Z,101227.16
2018-06-17T06:00:31.150Z,101227.44
2018-06-17T06:02:59.556Z,101229.33
2018-06-17T06:05:27.996Z,101241.28
2018-06-17T06:07:56.387Z,101241.73
2018-06-17T06:10:24.832Z,101237.01
2018-06-17T06:12:53.226Z,101234.86
2018-06-17T06:15:21.682Z,101226.95
2018-06-17T06:17:50.071Z,101228.34
2018-06-17T06:20:18.468Z,101226.66
2018-06-17T06:22:46.879Z,101226.78
2018-06-17T06:25:15.301Z,101215.41
2018-06-17T06:27:43.709Z,101219.87
2018-06-17T06:30:12.087Z,101223.64
2018-06-17T06:32:40.498Z,101218.15
2018-06-17T06:35:08.866Z,101225.35
2018-06-17T06:37:37.268Z,101216.34
2018-06-17T06:40:05.642Z,101225.87
2018-06-17T06:42:34.055Z,101226.95
2018-06-17T06:45:02.504Z,101229.78
2018-06-17T06:47:30.901Z,101237.77
2018-06-17T06:49:59.343Z,101236.16
2018-06-17T06:52:27.717Z,101228.80
2018-06-17T06:54:56.106Z,101230.30
2018-06-17T06:57:24.569Z,101237.92
2018-06-17T06:59:52.979Z,101250.30
2018-06-17T07:02:32.728Z,101258.30
2018-06-17T07:05:12.434Z,101261.84
2018-06-17T07:07:52.040Z,101262.16
2018-06-17T07:10:24.188Z,101259.53
2018-06-17T07:12:52.634Z,101265.53
2018-06-17T07:15:32.816Z,101267.01
2018-06-17T07:18:12.607Z,101270.39
2018-06-17T07:20:41.247Z,101275.30
2018-06-17T07:23:09.851Z,101285.41
2018-06-17T07:26:54.705Z,101285.31
2018-06-17T07:29:37.941Z,101292.69
2018-06-17T07:32:06.331Z,101295.13
2018-06-17T07:34:34.919Z,101291.88
2018-06-17T07:37:03.629Z,101306.42
2018-06-17T07:41:41.922Z,101305.52
2018-06-17T07:44:10.326Z,101304.73
2018-06-17T07:46:38.710Z,101303.28
2018-06-17T07:49:28.733Z,101305.17
2018-06-17T07:52:11.645Z,101305.42
2018-06-17T07:54:41.027Z,101308.95
2018-06-17T07:57:10.369Z,101315.63
2018-06-17T07:59:38.763Z,101317.30
2018-06-17T08:02:07.865Z,101311.45
2018-06-17T08:04:36.427Z,101314.05
2018-06-17T08:07:04.851Z,101330.35
2018-06-17T08:09:33.246Z,101336.14
2018-06-17T08:12:01.908Z,101333.84
2018-06-17T08:14:30.334Z,101334.85
2018-06-17T08:16:58.996Z,101343.32
2018-06-17T08:19:28.550Z,101334.19
2018-06-17T08:21:57.900Z,101344.45
2018-06-17T08:24:26.647Z,101339.72
2018-06-17T08:26:55.096Z,101335.03
2018-06-17T08:29:23.737Z,101339.98
2018-06-17T08:31:52.165Z,101334.72
2018-06-17T08:34:20.547Z,101333.64
2018-06-17T08:36:48.960Z,101332.94
2018-06-17T08:39:18.556Z,101328.84
2018-06-17T08:41:47.053Z,101328.69
2018-06-17T08:44:16.233Z,101326.03
2018-06-17T08:46:45.493Z,101323.14
2018-06-17T08:49:14.405Z,101317.36
2018-06-17T08:51:42.930Z,101315.45
2018-06-17T08:54:11.369Z,101323.41
2018-06-17T08:56:39.823Z,101327.16
2018-06-17T08:59:08.207Z,101319.13
2018-06-17T09:01:36.948Z,101326.42
2018-06-17T09:04:05.336Z,101323.06
2018-06-17T09:06:33.733Z,101322.67
2018-06-17T09:09:02.183Z,101321.78
2018-06-17T09:11:30.591Z,101325.53
2018-06-17T09:13:58.995Z,101322.75
2018-06-17T09:16:27.424Z,101328.17
2018-06-17T09:18:55.853Z,101327.52
2018-06-17T09:21:24.231Z,101319.65
2018-06-17T09:23:52.635Z,101319.02
2018-06-17T09:26:21.072Z,101322.88
2018-06-17T09:28:49.491Z,101325.36
2018-06-17T09:31:17.861Z,101326.22
2018-06-17T09:33:46.268Z,101322.02
2018-06-17T09:36:14.641Z,101325.08
2018-06-17T09:38:43.042Z,101329.78
2018-06-17T09:41:11.501Z,101322.86
2018-06-17T09:43:39.905Z,101324.81
2018-06-17T09:46:08.289Z,101332.12
2018-06-17T09:48:36.683Z,101328.60
2018-06-17T09:51:05.061Z,101325.34
2018-06-17T09:53:33.467Z,101327.68
2018-06-17T09:56:01.840Z,101324.37
2018-06-17T09:58:30.263Z,101326.52
2018-06-17T10:00:58.634Z,101328.17
2018-06-17T10:03:27.031Z,101328.55
2018-06-17T10:05:55.403Z,101321.73
2018-06-17T10:08:23.802Z,101326.13
2018-06-17T10:10:56.254Z,101328.54
2018-06-17T10:13:25.995Z,101318.53
2018-06-17T10:15:54.630Z,101318.72
2018-06-17T10:18:23.769Z,101314.99
2018-06-17T10:20:52.187Z,101317.31
2018-06-17T10:23:20.847Z,101316.19
2018-06-17T10:25:49.231Z,101317.23
2018-06-17T10:28:18.119Z,101319.03
2018-06-17T10:30:47.800Z,101322.11
2018-06-17T10:33:16.211Z,101325.45
2018-06-17T10:35:45.379Z,101325.92
2018-06-17T10:38:13.815Z,101327.16
2018-06-17T10:40:42.219Z,101328.02
2018-06-17T10:43:12.894Z,101323.00
2018-06-17T10:45:41.655Z,101334.13
2018-06-17T10:48:10.497Z,101335.37
2018-06-17T10:50:38.869Z,101331.28
2018-06-17T10:53:07.728Z,101331.09
2018-06-17T10:55:36.179Z,101342.08
2018-06-17T10:58:04.559Z,101342.80
2018-06-17T11:00:32.958Z,101334.30
2018-06-17T11:03:01.340Z,101337.81
2018-06-17T11:05:29.785Z,101340.29
2018-06-17T11:07:58.146Z,101341.34
2018-06-17T11:10:26.558Z,101335.31
2018-06-17T11:12:54.939Z,101335.07
2018-06-17T11:15:23.379Z,101338.53
2018-06-17T11:17:51.758Z,101331.88
2018-06-17T11:20:20.167Z,101329.03
2018-06-17T11:22:48.542Z,101323.56
2018-06-17T11:25:16.951Z,101323.03
2018-06-17T11:27:45.339Z,101330.22
2018-06-17T11:30:13.747Z,101327.89
2018-06-17T11:32:42.151Z,101319.03
2018-06-17T11:35:10.551Z,101311.98
2018-06-17T11:37:38.934Z,101321.24
2018-06-17T11:40:07.388Z,101319.58
2018-06-17T11:42:35.774Z,101324.36
2018-06-17T11:45:04.185Z,101326.30
2018-06-17T11:47:32.567Z,101320.17
2018-06-17T11:50:00.978Z,101324.89
2018-06-17T11:52:29.354Z,101315.04
2018-06-17T11:54:57.766Z,101313.92
2018-06-17T11:57:26.151Z,101305.77
2018-06-17T11:59:54.552Z,101307.38
2018-06-17T12:02:22.953Z,101309.95
2018-06-17T12:04:51.357Z,101311.02
2018-06-17T12:07:19.770Z,101313.53
2018-06-17T12:09:48.196Z,101317.53
2018-06-17T12:12:16.576Z,101310.04
2018-06-17T12:14:44.995Z,101319.90
2018-06-17T12:17:13.467Z,101314.66
2018-06-17T12:19:41.847Z,101322.09
2018-06-17T12:22:10.253Z,101320.51
2018-06-17T12:24:38.629Z,101308.39
2018-06-17T12:27:07.040Z,101320.79
2018-06-17T12:29:35.422Z,101322.96
2018-06-17T12:32:03.827Z,101321.09
2018-06-17T12:34:32.220Z,101330.92
2018-06-17T12:37:00.636Z,101327.72
2018-06-17T12:39:29.007Z,101328.58
2018-06-17T12:41:57.407Z,101329.78
2018-06-17T12:44:25.787Z,101327.10
2018-06-17T12:46:54.212Z,101332.44
2018-06-17T12:49:22.611Z,101320.17
2018-06-17T12:51:51.026Z,101322.09
2018-06-17T12:54:19.400Z,101329.89
2018-06-17T12:56:47.798Z,101340.17
2018-06-17T12:59:16.191Z,101342.96
2018-06-17T13:01:44.590Z,101337.46
2018-06-17T13:04:12.958Z,101339.56
2018-06-17T13:06:41.363Z,101338.91
2018-06-17T13:09:11.127Z,101343.28
2018-06-17T13:11:39.527Z,101343.48
2018-06-17T13:14:08.487Z,101338.48
2018-06-17T13:16:36.883Z,101338.09
2018-06-17T13:19:05.607Z,101331.76
2018-06-17T13:21:34.007Z,101336.70
2018-06-17T13:24:02.393Z,101336.88
2018-06-17T13:26:30.855Z,101329.52
2018-06-17T13:28:59.243Z,101325.52
2018-06-17T13:31:27.606Z,101332.34
2018-06-17T13:33:56.003Z,101331.49
2018-06-17T13:36:24.375Z,101329.02
2018-06-17T13:38:52.770Z,101328.05
2018-06-17T13:41:21.146Z,101325.85
2018-06-17T13:43:49.543Z,101327.89
2018-06-17T13:46:17.948Z,101327.74
2018-06-17T13:48:46.363Z,101328.02
2018-06-17T13:51:14.747Z,101326.08
2018-06-17T13:53:43.155Z,101332.83
2018-06-17T13:56:11.531Z,101335.81
2018-06-17T13:58:39.946Z,101333.05
2018-06-17T14:01:08.320Z,101340.12
2018-06-17T14:03:36.713Z,101326.47
2018-06-17T14:06:05.094Z,101334.69
2018-06-17T14:08:33.494Z,101339.06
2018-06-17T14:11:01.926Z,101346.59
2018-06-17T14:13:30.376Z,101346.00
2018-06-17T14:15:58.748Z,101345.91
2018-06-17T14:18:27.205Z,101346.16
2018-06-17T14:20:55.588Z,101350.21
2018-06-17T14:23:23.987Z,101349.30
2018-06-17T14:25:52.367Z,101345.78
2018-06-17T14:28:20.770Z,101351.91
2018-06-17T14:30:49.147Z,101352.39
2018-06-17T14:33:17.555Z,101349.66
2018-06-17T14:35:45.924Z,101348.77
2018-06-17T14:38:14.318Z,101354.64
2018-06-17T14:40:48.175Z,101358.09
2018-06-17T14:43:21.899Z,101352.19
2018-06-17T14:45:55.705Z,101351.97
2018-06-17T14:48:29.403Z,101354.42
2018-06-17T14:51:03.106Z,101360.39
2018-06-17T14:53:31.526Z,101359.64
2018-06-17T14:55:59.899Z,101363.31
2018-06-17T14:58:28.289Z,101362.36
2018-06-17T15:00:56.662Z,101366.90
2018-06-17T15:03:25.088Z,101369.63
2018-06-17T15:05:53.838Z,101357.52
2018-06-17T15:08:22.265Z,101358.21
2018-06-17T15:10:50.630Z,101360.67
2018-06-17T15:13:19.067Z,101363.02
2018-06-17T15:15:47.533Z,101366.02
2018-06-17T15:18:15.904Z,101368.20
2018-06-17T15:20:44.343Z,101366.55
2018-06-17T15:23:12.739Z,101373.16
2018-06-17T15:25:41.137Z,101366.55
2018-06-17T15:28:09.520Z,101356.72
2018-06-17T15:30:37.963Z,101359.13
2018-06-17T15:33:11.832Z,101356.76
2018-06-17T15:35:45.694Z,101356.59
2018-06-17T15:38:19.534Z,101356.32
2018-06-17T15:40:53.232Z,101352.67
2018-06-17T15:43:21.643Z,101360.16
2018-06-17T15:45:50.046Z,101363.18
2018-06-17T15:48:18.433Z,101369.42
2018-06-17T15:50:46.911Z,101361.76
2018-06-17T15:53:15.270Z,101365.55
2018-06-17T15:55:43.674Z,101367.83
2018-06-17T15:58:12.054Z,101372.50
2018-06-17T16:00:40.472Z,101376.31
2018-06-17T16:03:08.849Z,101374.20
2018-06-17T16:05:37.251Z,101366.19
2018-06-17T16:08:05.671Z,101366.77
2018-06-17T16:10:34.076Z,101369.04
2018-06-17T16:13:07.787Z,101368.23
2018-06-17T16:15:41.515Z,101365.41
2018-06-17T16:18:15.423Z,101378.55
2018-06-17T16:20:49.144Z,101381.88
2018-06-17T16:23:17.581Z,101385.81
2018-06-17T16:25:45.959Z,101382.54
2018-06-17T16:28:14.609Z,101383.08
2018-06-17T16:30:43.070Z,101388.05
2018-06-17T16:33:11.479Z,101384.80
2018-06-17T16:35:39.919Z,101385.00
2018-06-17T16:38:08.318Z,101387.81
2018-06-17T16:40:36.694Z,101386.28
2018-06-17T16:43:05.143Z,101389.30
2018-06-17T16:45:33.510Z,101395.70
2018-06-17T16:48:01.919Z,101395.33
2018-06-17T16:50:30.297Z,101403.45
2018-06-17T16:53:04.075Z,101398.13
2018-06-17T16:55:37.915Z,101404.80
2018-06-17T16:58:11.608Z,101401.10
2018-06-17T17:00:39.988Z,101408.61
2018-06-17T17:03:08.395Z,101408.87
2018-06-17T17:05:36.776Z,101419.24
2018-06-17T17:08:05.191Z,101419.50
2018-06-17T17:10:34.025Z,101420.20
2018-06-17T17:13:02.471Z,101427.76
2018-06-17T17:15:30.852Z,101425.71
2018-06-17T17:17:59.258Z,101427.34
2018-06-17T17:20:27.639Z,101430.14
2018-06-17T17:22:56.039Z,101432.53
2018-06-17T17:25:24.423Z,101440.87
2018-06-17T17:27:52.827Z,101440.34
2018-06-17T17:30:21.213Z,101447.94
2018-06-17T17:32:55.055Z,101444.17
2018-06-17T17:35:28.855Z,101440.61
2018-06-17T17:38:02.547Z,101445.20
2018-06-17T17:40:36.230Z,101447.41
2018-06-17T17:43:04.645Z,101449.69
2018-06-17T17:45:35.011Z,101452.05
2018-06-17T17:48:03.615Z,101450.47
2018-06-17T17:50:31.995Z,101454.84
2018-06-17T17:53:00.414Z,101459.00
2018-06-17T17:55:28.777Z,101462.38
2018-06-17T17:57:57.202Z,101456.72
2018-06-17T18:00:25.584Z,101467.89
2018-06-17T18:02:54.038Z,101467.13
2018-06-17T18:05:22.396Z,101471.24
2018-06-17T18:07:50.770Z,101473.58
2018-06-17T18:10:19.158Z,101482.91
2018-06-17T18:12:47.531Z,101474.53
2018-06-17T18:15:15.955Z,101483.44
2018-06-17T18:17:44.318Z,101480.70
2018-06-17T18:20:12.715Z,101462.88
2018-06-17T18:22:41.091Z,101487.51
2018-06-17T18:25:14.761Z,101492.16
2018-06-17T18:27:48.776Z,101490.61
2018-06-17T18:30:22.472Z,101493.09
2018-06-17T18:32:56.157Z,101498.59
2018-06-17T18:35:30.009Z,101509.96
2018-06-17T18:37:58.391Z,101521.22
2018-06-17T18:40:26.800Z,101521.04
2018-06-17T18:42:55.180Z,101527.39
2018-06-17T18:45:23.579Z,101538.63
2018-06-17T18:47:52.072Z,101535.79
2018-06-17T18:50:20.462Z,101539.29
2018-06-17T18:52:48.845Z,101540.18
2018-06-17T18:55:17.299Z,101545.89
2018-06-17T18:57:45.659Z,101547.11
2018-06-17T19:00:14.067Z,101550.02
2018-06-17T19:02:42.482Z,101550.33
2018-06-17T19:05:10.882Z,101540.88
2018-06-17T19:07:39.547Z,101539.36
2018-06-17T19:10:13.375Z,101546.67
2018-06-17T19:12:47.114Z,101549.20
2018-06-17T19:15:20.887Z,101556.16
2018-06-17T19:17:54.634Z,101559.98
2018-06-17T19:20:23.042Z,101570.30
2018-06-17T19:22:51.422Z,101578.39
2018-06-17T19:25:19.831Z,101575.95
2018-06-17T19:27:48.207Z,101573.45
2018-06-17T19:30:16.611Z,101578.48
2018-06-17T19:32:44.996Z,101572.06
2018-06-17T19:35:13.394Z,101588.08
2018-06-17T19:37:41.770Z,101587.80
2018-06-17T19:40:10.171Z,101591.88
2018-06-17T19:42:38.583Z,101597.22
2018-06-17T19:45:06.966Z,101591.59
2018-06-17T19:47:35.367Z,101590.75
2018-06-17T19:50:09.117Z,101591.25
2018-06-17T19:52:43.775Z,101601.86
2018-06-17T19:55:17.516Z,101604.09
2018-06-17T19:57:51.163Z,101610.39
2018-06-17T20:00:25.262Z,101606.50
2018-06-17T20:02:53.663Z,101614.45
2018-06-17T20:05:22.047Z,101609.27
2018-06-17T20:07:50.447Z,101611.47
2018-06-17T20:10:18.819Z,101620.29
2018-06-17T20:12:47.234Z,101611.53
2018-06-17T20:15:15.633Z,101615.07
2018-06-17T20:17:44.067Z,101618.16
2018-06-17T20:20:12.446Z,101619.12
2018-06-17T20:22:40.995Z,101624.89
2018-06-17T20:25:09.338Z,101621.89
2018-06-17T20:27:37.756Z,101620.17
2018-06-17T20:30:06.950Z,101620.21
2018-06-17T20:32:40.850Z,101618.94
2018-06-17T20:35:14.670Z,101620.71
2018-06-17T20:37:48.372Z,101618.53
2018-06-17T20:40:22.186Z,101620.75
2018-06-17T20:42:55.979Z,101622.94
2018-06-17T20:45:24.355Z,101619.44
2018-06-17T20:47:53.303Z,101622.52
2018-06-17T20:50:22.043Z,101623.87
2018-06-17T20:52:50.455Z,101623.02
2018-06-17T20:55:19.114Z,101626.10
2018-06-17T20:57:47.825Z,101625.23
2018-06-17T21:00:16.195Z,101625.69
2018-06-17T21:02:44.598Z,101624.41
2018-06-17T21:05:13.178Z,101621.37
2018-06-17T21:07:41.595Z,101627.09
2018-06-17T21:10:09.972Z,101630.63
2018-06-17T21:12:38.375Z,101628.44
2018-06-17T21:15:12.168Z,101628.89
2018-06-17T21:17:40.558Z,101631.11
2018-06-17T21:20:14.219Z,101635.09
2018-06-17T21:22:47.943Z,101630.31
2018-06-17T21:25:21.587Z,101628.59
2018-06-17T21:27:52.360Z,101632.98
2018-06-17T21:30:21.003Z,101634.34
2018-06-17T21:32:49.461Z,101641.81
2018-06-17T21:35:18.191Z,101640.53
2018-06-17T21:37:46.642Z,101643.20
2018-06-17T21:40:15.057Z,101647.14
2018-06-17T21:42:43.710Z,101650.67
2018-06-17T21:45:12.523Z,101652.89
2018-06-17T21:47:41.803Z,101652.89
2018-06-17T21:50:10.209Z,101656.00
2018-06-17T21:52:40.339Z,101648.16
2018-06-17T21:55:08.752Z,101655.66
2018-06-17T21:57:37.133Z,101653.05
2018-06-17T22:00:07.153Z,101658.31
2018-06-17T22:02:39.693Z,101649.58
2018-06-17T22:05:08.103Z,101651.34
2018-06-17T22:07:40.677Z,101655.28
2018-06-17T22:10:14.430Z,101661.89
2018-06-17T22:12:48.216Z,101661.88
2018-06-17T22:15:21.998Z,101672.41
2018-06-17T22:17:51.956Z,101676.38
2018-06-17T22:20:20.555Z,101673.34
2018-06-17T22:22:48.931Z,101661.09
2018-06-17T22:25:17.723Z,101659.80
2018-06-17T22:27:46.102Z,101662.41
2018-06-17T22:30:14.498Z,101672.09
2018-06-17T22:32:42.917Z,101679.57
2018-06-17T22:35:11.320Z,101671.27
2018-06-17T22:37:39.695Z,101674.34
2018-06-17T22:40:08.119Z,101676.53
2018-06-17T22:42:36.649Z,101676.55
2018-06-17T22:45:05.303Z,101684.46
2018-06-17T22:47:39.078Z,101685.76
2018-06-17T22:50:07.973Z,101685.76
2018-06-17T22:52:47.787Z,101682.70
2018-06-17T22:55:16.174Z,101681.39
2018-06-17T22:58:50.859Z,101687.55
2018-06-17T23:01:24.713Z,101687.11
2018-06-17T23:03:58.338Z,101694.56
2018-06-17T23:06:32.200Z,101688.44
2018-06-17T23:09:06.024Z,101691.47
2018-06-17T23:11:34.735Z,101688.44
2018-06-17T23:14:03.134Z,101695.02
2018-06-17T23:16:31.532Z,101692.41
2018-06-17T23:18:59.900Z,101690.63
2018-06-17T23:21:28.288Z,101693.70
2018-06-17T23:23:56.658Z,101688.48
2018-06-17T23:26:25.054Z,101688.45
2018-06-17T23:28:53.435Z,101686.71
2018-06-17T23:31:21.843Z,101686.28
2018-06-17T23:33:50.218Z,101686.73
2018-06-17T23:36:18.605Z,101688.03
2018-06-17T23:38:46.970Z,101677.55
2018-06-17T23:41:16.573Z,101678.42
2018-06-17T23:43:46.516Z,101685.00
2018-06-17T23:46:20.406Z,101691.13
2018-06-17T23:48:54.174Z,101695.95
2018-06-17T23:51:28.015Z,101702.95
2018-06-17T23:54:01.716Z,101702.95
2018-06-17T23:56:30.135Z,101707.77
2018-06-17T23:58:58.506Z,101705.56
